Kaisen Maru — JD2195 — position and weather

sailwx.info

Track history (hours):
 
Tides and Currents Weather Stations Pressure Air Temp Water Temp Dewpoint Dewpoint Depression Visibility Wind Speed Wind Dir Waves Ship Positions

Kaisen Maru

Last reported at 2018-May-25 12:07 UTC. Time now 2018-May-25 14:25 UTC.
Position N 34°15' E 135°07'.

Length 62 m; draft 4.2 m.

Type: Cargo ship. MMSI: 431602319.

Date/timePositionNaut miles runAvg speedWind from/ knotsBaromVisibWave heightAir tempDewpointWater temp
2018-May-25 12:07N 34°15' E 135°07'0 0.2
2018-May-25 12:00N 34°15' E 135°07'3 5.4
2018-May-25 11:30N 34°15' E 135°04'5 9.7
2018-May-25 11:00N 34°20' E 135°05'510.4
2018-May-25 10:30N 34°24' E 135°09'510.1
2018-May-25 10:00N 34°28' E 135°13'510.5
2018-May-25 09:29N 34°32' E 135°17'510.8
2018-May-25 09:00N 34°36' E 135°21'5 9.4
2018-May-25 08:30N 34°35' E 135°27'0 0.8
2018-May-25 08:00N 34°34' E 135°27'0 0.0
2018-May-25 07:30N 34°34' E 135°27'3 5.6
2018-May-25 07:00N 34°36' E 135°24'610.9
2018-May-25 06:30N 34°39' E 135°19'4 7.7
2018-May-25 06:00N 34°43' E 135°18'0 0.0
2018-May-25 05:29N 34°43' E 135°18'0 0.0
2018-May-25 04:59N 34°43' E 135°18'0 0.0
2018-May-25 04:30N 34°43' E 135°18'1 2.7
2018-May-25 04:00N 34°42' E 135°18'0 0.0
2018-May-25 03:30N 34°42' E 135°18'0 0.0
2018-May-25 03:00N 34°42' E 135°18'0 0.1
2018-May-25 02:30N 34°42' E 135°18'3 5.5
2018-May-25 02:00N 34°39' E 135°20'5 9.4
2018-May-25 01:30N 34°39' E 135°26'1 2.4
2018-May-25 01:00N 34°40' E 135°27'0 0.0
2018-May-25 00:30N 34°40' E 135°27'0 0.0
2018-May-24 23:51N 34°40' E 135°27'2 5.2
2018-May-24 23:30N 34°39' E 135°25'5 9.9
2018-May-24 23:00N 34°36' E 135°20'5 9.7
2018-May-24 22:30N 34°35' E 135°15'5 9.3
2018-May-24 22:00N 34°35' E 135°09'5 9.4
2018-May-24 21:30N 34°36' E 135°03'4 7.3
2018-May-24 21:00N 34°37' E 134°59'5 8.5
2018-May-24 20:22N 34°35' E 134°53'3 7.8
2018-May-24 19:58N 34°34' E 134°50'5 8.6
2018-May-24 19:25N 34°32' E 134°45'4 9.7
2018-May-24 19:00N 34°30' E 134°40'5 9.9
2018-May-24 18:30N 34°28' E 134°34'610.2
2018-May-24 17:55N 34°26' E 134°28'  
Track history (hours):
 
Tides and Currents Weather Stations Pressure Air Temp Water Temp Dewpoint Dewpoint Depression Visibility Wind Speed Wind Dir Waves Ship Positions

Kaisen Maru

Last reported at 2018-May-25 12:07 UTC. Time now 2018-May-25 14:25 UTC.
Position N 34°15' E 135°07'.

Length 62 m; draft 4.2 m.

Type: Cargo ship. MMSI: 431602319.

Date/timePositionNaut miles runAvg speedWind from/ knotsBaromVisibWave heightAir tempDewpointWater temp
2018-May-25 12:07N 34°15' E 135°07'0 0.2
2018-May-25 12:00N 34°15' E 135°07'3 5.4
2018-May-25 11:30N 34°15' E 135°04'5 9.7
2018-May-25 11:00N 34°20' E 135°05'510.4
2018-May-25 10:30N 34°24' E 135°09'510.1
2018-May-25 10:00N 34°28' E 135°13'510.5
2018-May-25 09:29N 34°32' E 135°17'510.8
2018-May-25 09:00N 34°36' E 135°21'5 9.4
2018-May-25 08:30N 34°35' E 135°27'0 0.8
2018-May-25 08:00N 34°34' E 135°27'0 0.0
2018-May-25 07:30N 34°34' E 135°27'3 5.6
2018-May-25 07:00N 34°36' E 135°24'610.9
2018-May-25 06:30N 34°39' E 135°19'4 7.7
2018-May-25 06:00N 34°43' E 135°18'0 0.0
2018-May-25 05:29N 34°43' E 135°18'0 0.0
2018-May-25 04:59N 34°43' E 135°18'0 0.0
2018-May-25 04:30N 34°43' E 135°18'1 2.7
2018-May-25 04:00N 34°42' E 135°18'0 0.0
2018-May-25 03:30N 34°42' E 135°18'0 0.0
2018-May-25 03:00N 34°42' E 135°18'0 0.1
2018-May-25 02:30N 34°42' E 135°18'3 5.5
2018-May-25 02:00N 34°39' E 135°20'5 9.4
2018-May-25 01:30N 34°39' E 135°26'1 2.4
2018-May-25 01:00N 34°40' E 135°27'0 0.0
2018-May-25 00:30N 34°40' E 135°27'0 0.0
2018-May-24 23:51N 34°40' E 135°27'2 5.2
2018-May-24 23:30N 34°39' E 135°25'5 9.9
2018-May-24 23:00N 34°36' E 135°20'5 9.7
2018-May-24 22:30N 34°35' E 135°15'5 9.3
2018-May-24 22:00N 34°35' E 135°09'5 9.4
2018-May-24 21:30N 34°36' E 135°03'4 7.3
2018-May-24 21:00N 34°37' E 134°59'5 8.5
2018-May-24 20:22N 34°35' E 134°53'3 7.8
2018-May-24 19:58N 34°34' E 134°50'5 8.6
2018-May-24 19:25N 34°32' E 134°45'4 9.7
2018-May-24 19:00N 34°30' E 134°40'5 9.9
2018-May-24 18:30N 34°28' E 134°34'610.2
2018-May-24 17:55N 34°26' E 134°28'  

Dump ship's entire track history